createdAt,value
2022-12-20T00:01:30.553Z,97.60
2022-12-20T00:04:00.325Z,97.92
2022-12-20T00:06:29.325Z,97.93
2022-12-20T00:08:58.779Z,98.36
2022-12-20T00:11:27.004Z,99.03
2022-12-20T00:13:54.632Z,98.85
2022-12-20T00:16:24.164Z,98.43
2022-12-20T00:18:53.924Z,98.73
2022-12-20T00:21:21.929Z,98.94
2022-12-20T00:23:50.055Z,99.21
2022-12-20T00:26:19.673Z,98.92
2022-12-20T00:28:47.573Z,98.75
2022-12-20T00:31:18.064Z,99.99
2022-12-20T00:33:48.465Z,99.86
2022-12-20T00:36:17.363Z,99.47
2022-12-20T00:38:46.094Z,99.56
2022-12-20T00:41:22.578Z,99.56
2022-12-20T00:43:52.423Z,99.79
2022-12-20T00:46:21.483Z,99.14
2022-12-20T00:48:49.376Z,99.55
2022-12-20T00:51:19.694Z,99.58
2022-12-20T00:53:47.822Z,99.61
2022-12-20T00:56:15.558Z,99.54
2022-12-20T00:58:44.123Z,99.35
2022-12-20T01:01:19.109Z,98.54
2022-12-20T01:03:49.756Z,98.52
2022-12-20T01:06:18.134Z,98.49
2022-12-20T01:08:45.914Z,98.20
2022-12-20T01:11:19.724Z,98.46
2022-12-20T01:13:51.111Z,98.49
2022-12-20T01:16:29.632Z,98.63
2022-12-20T01:18:57.693Z,98.13
2022-12-20T01:21:27.311Z,98.66
2022-12-20T01:23:55.827Z,98.01
2022-12-20T01:26:26.330Z,97.48
2022-12-20T01:28:56.592Z,97.01
2022-12-20T01:31:28.396Z,97.17
2022-12-20T01:33:56.692Z,97.48
2022-12-20T01:36:29.605Z,96.91
2022-12-20T01:39:04.018Z,97.42
2022-12-20T01:41:33.457Z,97.26
2022-12-20T01:44:04.579Z,96.98
2022-12-20T01:46:34.723Z,97.84
2022-12-20T01:49:13.139Z,97.51
2022-12-20T01:51:47.087Z,97.33
2022-12-20T01:54:20.186Z,96.96
2022-12-20T01:56:55.770Z,96.42
2022-12-20T01:59:23.857Z,94.17
2022-12-20T02:01:51.872Z,93.60
2022-12-20T02:04:19.352Z,92.47
2022-12-20T02:06:46.696Z,92.99
2022-12-20T02:09:14.461Z,92.55
2022-12-20T02:11:51.749Z,91.23
2022-12-20T02:14:35.339Z,91.02
2022-12-20T02:17:44.740Z,91.59
2022-12-20T02:20:49.419Z,91.04
2022-12-20T02:23:38.247Z,91.01
2022-12-20T02:26:33.400Z,90.65
2022-12-20T02:29:25.922Z,89.39
2022-12-20T02:32:04.939Z,88.64
2022-12-20T02:34:35.465Z,88.98
2022-12-20T02:37:03.104Z,89.26
2022-12-20T02:39:31.752Z,89.43
2022-12-20T02:42:07.410Z,88.89
2022-12-20T02:44:57.822Z,88.02
2022-12-20T02:47:30.970Z,89.15
2022-12-20T02:49:58.738Z,89.94
2022-12-20T02:52:31.070Z,89.63
2022-12-20T02:54:59.669Z,89.85
2022-12-20T02:57:37.980Z,89.38
2022-12-20T03:00:08.304Z,90.27
2022-12-20T03:02:55.348Z,89.74
2022-12-20T03:05:26.714Z,89.68
2022-12-20T03:07:54.773Z,90.16
2022-12-20T03:10:25.683Z,90.12
2022-12-20T03:12:53.031Z,91.10
2022-12-20T03:15:21.082Z,90.69
2022-12-20T03:17:52.175Z,90.89
2022-12-20T03:20:19.641Z,91.20
2022-12-20T03:23:17.617Z,90.56
2022-12-20T03:25:45.034Z,90.17
2022-12-20T03:28:18.791Z,89.15
2022-12-20T03:30:47.157Z,89.06
2022-12-20T03:33:14.755Z,89.29
2022-12-20T03:35:43.175Z,90.96
2022-12-20T03:38:11.182Z,91.05
2022-12-20T03:40:38.779Z,91.20
2022-12-20T03:43:06.254Z,91.61
2022-12-20T03:45:34.080Z,92.16
2022-12-20T03:48:01.555Z,91.96
2022-12-20T03:50:31.505Z,93.00
2022-12-20T03:52:59.034Z,92.47
2022-12-20T03:55:27.077Z,92.75
2022-12-20T03:57:54.634Z,93.10
2022-12-20T04:00:29.450Z,92.69
2022-12-20T04:03:11.759Z,92.43
2022-12-20T04:05:40.370Z,91.71
2022-12-20T04:08:07.967Z,91.70
2022-12-20T04:10:55.478Z,91.58
2022-12-20T04:13:24.774Z,92.13
2022-12-20T04:15:58.301Z,92.76
2022-12-20T04:18:29.986Z,92.15
2022-12-20T04:21:01.246Z,91.72
2022-12-20T04:23:31.091Z,92.13
2022-12-20T04:25:59.720Z,91.54
2022-12-20T04:28:29.007Z,92.23
2022-12-20T04:30:57.826Z,92.35
2022-12-20T04:33:28.887Z,91.66
2022-12-20T04:35:56.663Z,91.93
2022-12-20T04:38:25.457Z,91.87
2022-12-20T04:40:55.188Z,92.18
2022-12-20T04:43:24.896Z,92.35
2022-12-20T04:45:56.541Z,92.12
2022-12-20T04:51:15.932Z,92.27
2022-12-20T04:53:48.125Z,90.64
2022-12-20T04:56:34.048Z,88.66
2022-12-20T04:59:07.843Z,88.37
2022-12-20T05:01:36.030Z,87.06
2022-12-20T05:04:04.159Z,86.64
2022-12-20T05:06:35.735Z,86.45
2022-12-20T05:09:03.565Z,87.31
2022-12-20T05:11:31.801Z,88.31
2022-12-20T05:13:59.259Z,88.56
2022-12-20T05:16:26.779Z,89.02
2022-12-20T05:18:54.220Z,89.92
2022-12-20T05:21:40.399Z,90.47
2022-12-20T05:24:28.662Z,89.12
2022-12-20T05:27:08.498Z,91.56
2022-12-20T05:29:36.098Z,90.99
2022-12-20T05:32:03.694Z,91.39
2022-12-20T05:34:33.038Z,91.51
2022-12-20T05:37:00.463Z,92.28
2022-12-20T05:39:31.163Z,93.07
2022-12-20T05:42:01.982Z,91.92
2022-12-20T05:44:29.481Z,91.07
2022-12-20T05:46:58.450Z,90.44
2022-12-20T05:49:29.645Z,90.68
2022-12-20T05:52:00.148Z,90.52
2022-12-20T05:54:27.758Z,88.88
2022-12-20T05:57:01.339Z,89.49
2022-12-20T05:59:40.796Z,89.54
2022-12-20T06:02:15.230Z,90.10
2022-12-20T06:05:03.623Z,91.22
2022-12-20T06:07:32.371Z,91.14
2022-12-20T06:10:00.812Z,91.76
2022-12-20T06:12:51.992Z,91.41
2022-12-20T06:15:19.564Z,90.62
2022-12-20T06:17:48.046Z,91.90
2022-12-20T06:20:16.057Z,91.58
2022-12-20T06:22:46.839Z,92.18
2022-12-20T06:25:15.889Z,91.52
2022-12-20T06:27:43.434Z,92.16
2022-12-20T06:30:17.510Z,92.69
2022-12-20T06:32:59.103Z,92.86
2022-12-20T06:35:26.582Z,93.21
2022-12-20T06:37:57.099Z,93.12
2022-12-20T06:40:24.619Z,92.32
2022-12-20T06:42:53.040Z,92.31
2022-12-20T06:45:23.515Z,92.58
2022-12-20T06:47:51.013Z,92.28
2022-12-20T06:50:18.486Z,91.48
2022-12-20T06:52:45.818Z,90.69
2022-12-20T06:55:13.292Z,90.56
2022-12-20T06:57:41.783Z,91.23
2022-12-20T07:00:10.449Z,89.72
2022-12-20T07:02:37.905Z,89.74
2022-12-20T07:05:05.921Z,88.75
2022-12-20T07:07:37.288Z,87.68
2022-12-20T07:10:08.997Z,87.81
2022-12-20T07:12:36.327Z,89.11
2022-12-20T07:15:05.747Z,89.22
2022-12-20T07:17:33.285Z,88.93
2022-12-20T07:20:00.955Z,89.58
2022-12-20T07:22:28.361Z,89.75
2022-12-20T07:24:56.187Z,90.66
2022-12-20T07:27:23.667Z,91.08
2022-12-20T07:29:51.849Z,90.35
2022-12-20T07:32:19.358Z,90.84
2022-12-20T07:34:46.872Z,90.79
2022-12-20T07:37:14.322Z,90.78
2022-12-20T07:39:42.333Z,90.85
2022-12-20T07:42:11.669Z,91.46
2022-12-20T07:44:43.710Z,93.73
2022-12-20T07:47:11.385Z,93.39
2022-12-20T07:49:38.854Z,94.29
2022-12-20T07:52:08.323Z,94.39
2022-12-20T07:54:54.875Z,95.34
2022-12-20T07:57:38.046Z,96.00
2022-12-20T08:00:06.547Z,96.23
2022-12-20T08:02:47.736Z,96.92
2022-12-20T08:05:16.128Z,97.40
2022-12-20T08:07:46.970Z,97.87
2022-12-20T08:10:17.087Z,98.60
2022-12-20T08:12:46.053Z,98.30
2022-12-20T08:15:13.592Z,98.80
2022-12-20T08:17:41.000Z,98.88
2022-12-20T08:20:08.761Z,99.41
2022-12-20T08:22:36.531Z,98.66
2022-12-20T08:25:04.903Z,98.75
2022-12-20T08:27:32.267Z,99.07
2022-12-20T08:30:00.107Z,99.70
2022-12-20T08:32:27.518Z,99.93
2022-12-20T08:34:56.082Z,99.16
2022-12-20T08:37:23.487Z,99.12
2022-12-20T08:39:50.864Z,100.00
2022-12-20T08:42:18.284Z,98.69
2022-12-20T08:44:45.905Z,98.50
2022-12-20T08:47:31.888Z,98.32
2022-12-20T08:49:59.246Z,98.71
2022-12-20T08:52:29.410Z,97.83
2022-12-20T08:54:56.905Z,97.73
2022-12-20T08:57:24.353Z,97.60
2022-12-20T08:59:51.798Z,97.35
2022-12-20T09:02:19.485Z,97.53
2022-12-20T09:04:47.539Z,97.51
2022-12-20T09:07:14.937Z,97.28
2022-12-20T09:09:42.319Z,97.51
2022-12-20T09:12:09.656Z,96.81
2022-12-20T09:14:37.850Z,96.67
2022-12-20T09:17:05.255Z,97.17
2022-12-20T09:19:32.635Z,97.08
2022-12-20T09:21:59.991Z,97.13
2022-12-20T09:24:27.362Z,97.58
2022-12-20T09:26:55.378Z,97.80
2022-12-20T09:29:28.367Z,97.47
2022-12-20T09:31:59.483Z,97.25
2022-12-20T09:34:27.412Z,97.09
2022-12-20T09:36:55.194Z,96.56
2022-12-20T09:39:22.645Z,95.02
2022-12-20T09:41:50.471Z,95.42
2022-12-20T09:44:25.862Z,95.19
2022-12-20T09:47:10.175Z,95.38
2022-12-20T09:49:43.469Z,95.24
2022-12-20T09:52:30.156Z,95.40
2022-12-20T09:55:00.584Z,94.61
2022-12-20T09:57:36.720Z,95.25
2022-12-20T10:00:16.119Z,95.03
2022-12-20T10:03:00.223Z,95.02
2022-12-20T10:06:00.909Z,94.82
2022-12-20T10:09:00.968Z,94.49
2022-12-20T10:11:52.608Z,94.11
2022-12-20T10:14:19.969Z,94.57
2022-12-20T10:16:53.434Z,93.94
2022-12-20T10:19:54.807Z,94.12
2022-12-20T10:22:47.371Z,93.33
2022-12-20T10:25:23.117Z,93.14
2022-12-20T10:27:56.994Z,93.43
2022-12-20T10:30:26.967Z,94.15
2022-12-20T10:32:57.401Z,93.76
2022-12-20T10:35:40.490Z,93.61
2022-12-20T10:38:13.928Z,93.53
2022-12-20T10:43:43.402Z,93.24
2022-12-20T10:46:13.261Z,92.85
2022-12-20T10:48:43.695Z,92.83
2022-12-20T10:51:16.273Z,93.72
2022-12-20T10:53:55.049Z,92.83
2022-12-20T10:56:24.665Z,92.25
2022-12-20T10:59:15.301Z,90.27
2022-12-20T11:01:46.319Z,89.62
2022-12-20T11:04:35.597Z,89.82
2022-12-20T11:07:24.277Z,89.58
2022-12-20T11:10:01.985Z,89.89
2022-12-20T11:12:29.469Z,90.46
2022-12-20T11:15:20.766Z,88.56
2022-12-20T11:18:09.440Z,88.90
2022-12-20T11:21:00.924Z,87.95
2022-12-20T11:23:45.418Z,86.98
2022-12-20T11:26:46.588Z,86.15
2022-12-20T11:30:02.290Z,85.22
2022-12-20T11:32:41.844Z,87.03
2022-12-20T11:36:06.619Z,87.07
2022-12-20T11:38:49.904Z,85.53
2022-12-20T11:41:36.162Z,84.37
2022-12-20T11:44:25.286Z,84.42
2022-12-20T11:47:08.914Z,82.59
2022-12-20T11:49:54.786Z,82.18
2022-12-20T11:52:28.146Z,81.64
2022-12-20T11:55:21.270Z,80.97
2022-12-20T11:58:17.457Z,81.50
2022-12-20T12:00:48.970Z,81.24
2022-12-20T12:03:39.928Z,81.75
2022-12-20T12:06:07.321Z,82.11
2022-12-20T12:08:43.462Z,81.22
2022-12-20T12:12:06.729Z,82.02
2022-12-20T12:15:16.671Z,82.58
2022-12-20T12:17:54.811Z,82.12
2022-12-20T12:20:22.086Z,83.33
2022-12-20T12:22:53.542Z,84.88
2022-12-20T12:25:21.870Z,85.79
2022-12-20T12:27:49.469Z,86.76
2022-12-20T12:30:17.495Z,86.36
2022-12-20T12:32:49.066Z,87.27
2022-12-20T12:35:34.872Z,88.56
2022-12-20T12:38:18.496Z,89.59
2022-12-20T12:41:01.070Z,90.01
2022-12-20T12:43:41.776Z,91.39
2022-12-20T12:46:26.086Z,91.73
2022-12-20T12:48:56.431Z,92.83
2022-12-20T12:51:34.904Z,91.84
2022-12-20T12:54:30.191Z,92.80
2022-12-20T12:57:10.835Z,92.53
2022-12-20T12:59:38.794Z,92.83
2022-12-20T13:02:16.062Z,92.90
2022-12-20T13:05:25.863Z,93.49
2022-12-20T13:07:55.045Z,93.21
2022-12-20T13:10:25.176Z,94.57
2022-12-20T13:12:53.213Z,95.34
2022-12-20T13:15:20.691Z,97.17
2022-12-20T13:18:13.662Z,97.84
2022-12-20T13:20:41.327Z,97.93
2022-12-20T13:23:08.780Z,98.09
2022-12-20T13:25:40.976Z,97.12
2022-12-20T13:28:23.345Z,97.04
2022-12-20T13:30:54.004Z,97.06
2022-12-20T13:33:47.559Z,97.03
2022-12-20T13:36:17.800Z,96.82
2022-12-20T13:38:48.204Z,96.96
2022-12-20T13:41:34.241Z,97.17
2022-12-20T13:44:26.819Z,97.14
2022-12-20T13:46:56.805Z,97.18
2022-12-20T13:49:29.167Z,96.42
2022-12-20T13:52:11.672Z,96.57
2022-12-20T13:54:48.965Z,97.31
2022-12-20T13:57:27.461Z,96.78
2022-12-20T14:00:05.338Z,96.63
2022-12-20T14:02:40.110Z,96.63
2022-12-20T14:05:16.469Z,96.44
2022-12-20T14:07:46.793Z,96.65
2022-12-20T14:10:22.871Z,96.83
2022-12-20T14:12:54.249Z,96.46
2022-12-20T14:15:33.300Z,96.26
2022-12-20T14:18:16.051Z,96.44
2022-12-20T14:20:44.872Z,96.82
2022-12-20T14:23:17.438Z,96.54
2022-12-20T14:25:54.942Z,96.81
2022-12-20T14:28:35.903Z,96.98
2022-12-20T14:31:05.911Z,96.10
2022-12-20T14:33:41.815Z,95.73
2022-12-20T14:36:16.670Z,95.53
2022-12-20T14:38:50.111Z,96.16
2022-12-20T14:41:39.864Z,96.10
2022-12-20T14:44:07.722Z,95.74
2022-12-20T14:46:36.019Z,94.98
2022-12-20T14:49:12.689Z,95.19
2022-12-20T14:51:40.625Z,95.18
2022-12-20T14:54:56.617Z,95.94
2022-12-20T14:57:20.184Z,95.38
2022-12-20T15:00:00.372Z,96.14
2022-12-20T15:02:42.251Z,96.11
2022-12-20T15:05:35.597Z,95.97
2022-12-20T15:08:11.915Z,95.98
2022-12-20T15:10:42.734Z,95.79
2022-12-20T15:13:15.574Z,95.52
2022-12-20T15:15:43.272Z,95.44
2022-12-20T15:18:15.588Z,95.80
2022-12-20T15:20:45.057Z,95.65
2022-12-20T15:23:18.813Z,95.68
2022-12-20T15:25:48.381Z,96.07
2022-12-20T15:28:23.599Z,96.42
2022-12-20T15:30:52.084Z,96.07
2022-12-20T15:33:26.023Z,96.64
2022-12-20T15:35:54.410Z,96.87
2022-12-20T15:38:47.496Z,96.71
2022-12-20T15:41:19.830Z,97.52
2022-12-20T15:43:48.435Z,98.87
2022-12-20T15:46:15.838Z,99.01
2022-12-20T15:48:43.352Z,99.02
2022-12-20T15:51:23.114Z,98.75
2022-12-20T15:53:50.520Z,98.91
2022-12-20T15:56:21.784Z,98.91
2022-12-20T15:58:49.863Z,98.31
2022-12-20T16:01:27.502Z,97.83
2022-12-20T16:03:55.283Z,98.14
2022-12-20T16:06:23.296Z,98.21
2022-12-20T16:08:50.897Z,97.77
2022-12-20T16:11:31.271Z,98.36
2022-12-20T16:13:59.411Z,98.56
2022-12-20T16:16:29.727Z,99.24
2022-12-20T16:18:58.204Z,98.94
2022-12-20T16:21:28.314Z,99.52
2022-12-20T16:23:55.691Z,99.53
2022-12-20T16:26:24.950Z,99.84
2022-12-20T16:28:54.640Z,100.00
2022-12-20T16:31:26.239Z,99.69
2022-12-20T16:33:54.061Z,99.59
2022-12-20T16:36:22.391Z,99.61
2022-12-20T16:38:50.981Z,99.47
2022-12-20T16:41:21.226Z,99.47
2022-12-20T16:43:49.242Z,98.95
2022-12-20T16:46:19.273Z,98.94
2022-12-20T16:48:47.666Z,99.26
2022-12-20T16:51:27.426Z,99.55
2022-12-20T16:54:21.786Z,99.21
2022-12-20T16:56:55.246Z,99.21
2022-12-20T16:59:23.757Z,98.62
2022-12-20T17:01:57.051Z,99.07
2022-12-20T17:04:26.257Z,99.15
2022-12-20T17:06:53.775Z,99.50
2022-12-20T17:09:21.248Z,100.00
2022-12-20T17:11:50.291Z,100.00
2022-12-20T17:14:20.171Z,100.00
2022-12-20T17:16:48.042Z,100.00
2022-12-20T17:19:15.594Z,100.00
2022-12-20T17:24:31.216Z,100.00
2022-12-20T17:26:58.594Z,99.58
2022-12-20T17:29:26.053Z,99.20
2022-12-20T17:31:53.538Z,98.65
2022-12-20T17:34:23.082Z,98.04
2022-12-20T17:36:53.040Z,97.51
2022-12-20T17:39:21.223Z,97.67
2022-12-20T17:41:49.670Z,96.07
2022-12-20T17:44:24.814Z,95.78
2022-12-20T17:46:53.299Z,95.99
2022-12-20T17:49:21.242Z,95.61
2022-12-20T17:51:49.677Z,96.20
2022-12-20T17:54:23.574Z,95.67
2022-12-20T17:56:51.404Z,94.88
2022-12-20T17:59:18.802Z,94.96
2022-12-20T18:01:46.983Z,94.70
2022-12-20T18:04:16.574Z,94.19
2022-12-20T18:06:45.940Z,94.02
2022-12-20T18:09:22.395Z,94.12
2022-12-20T18:11:49.819Z,94.30
2022-12-20T18:14:17.595Z,93.98
2022-12-20T18:16:45.228Z,94.32
2022-12-20T18:19:16.648Z,94.99
2022-12-20T18:21:45.029Z,95.27
2022-12-20T18:24:15.301Z,96.39
2022-12-20T18:26:44.973Z,97.76
2022-12-20T18:29:12.424Z,98.15
2022-12-20T18:31:39.901Z,100.00
2022-12-20T18:34:07.661Z,100.00
2022-12-20T18:36:37.428Z,100.00
2022-12-20T18:39:07.785Z,99.00
2022-12-20T18:41:35.602Z,99.39
2022-12-20T18:44:05.436Z,100.00
2022-12-20T18:46:33.850Z,100.00
2022-12-20T18:49:01.564Z,99.95
2022-12-20T18:51:36.697Z,100.00
2022-12-20T18:54:06.350Z,100.00
2022-12-20T18:56:36.648Z,100.00
2022-12-20T18:59:11.342Z,100.00
2022-12-20T19:01:41.616Z,100.00
2022-12-20T19:04:09.777Z,100.00
2022-12-20T19:06:37.597Z,100.00
2022-12-20T19:09:08.940Z,100.00
2022-12-20T19:11:36.855Z,100.00
2022-12-20T19:14:04.228Z,100.00
2022-12-20T19:16:32.985Z,100.00
2022-12-20T19:19:02.237Z,100.00
2022-12-20T19:21:32.917Z,100.00
2022-12-20T19:24:07.039Z,100.00
2022-12-20T19:26:36.660Z,100.00
2022-12-20T19:29:05.654Z,100.00
2022-12-20T19:31:36.379Z,100.00
2022-12-20T19:34:07.313Z,100.00
2022-12-20T19:36:38.065Z,100.00
2022-12-20T19:39:08.289Z,100.00
2022-12-20T19:41:36.064Z,100.00
2022-12-20T19:44:04.276Z,100.00
2022-12-20T19:46:31.799Z,100.00
2022-12-20T19:49:00.257Z,100.00
2022-12-20T19:51:28.409Z,100.00
2022-12-20T19:53:57.612Z,100.00
2022-12-20T19:56:28.973Z,100.00
2022-12-20T19:58:56.468Z,100.00
2022-12-20T20:01:26.927Z,100.00
2022-12-20T20:03:56.180Z,100.00
2022-12-20T20:06:24.001Z,100.00
2022-12-20T20:08:51.555Z,100.00
2022-12-20T20:11:21.030Z,100.00
2022-12-20T20:13:48.600Z,100.00
2022-12-20T20:16:21.840Z,100.00
2022-12-20T20:18:50.318Z,100.00
2022-12-20T20:21:21.911Z,100.00
2022-12-20T20:23:51.770Z,100.00
2022-12-20T20:26:29.411Z,100.00
2022-12-20T20:28:57.483Z,100.00
2022-12-20T20:31:25.020Z,100.00
2022-12-20T20:33:52.636Z,100.00
2022-12-20T20:36:23.337Z,100.00
2022-12-20T20:38:52.308Z,100.00
2022-12-20T20:41:19.792Z,100.00
2022-12-20T20:43:47.231Z,100.00
2022-12-20T20:46:16.676Z,100.00
2022-12-20T20:48:44.915Z,100.00
2022-12-20T20:51:12.781Z,100.00
2022-12-20T20:53:40.689Z,100.00
2022-12-20T20:56:09.095Z,100.00
2022-12-20T20:58:37.376Z,100.00
2022-12-20T21:01:08.577Z,100.00
2022-12-20T21:03:37.264Z,100.00
2022-12-20T21:08:55.968Z,100.00
2022-12-20T21:11:24.040Z,100.00
2022-12-20T21:13:54.127Z,100.00
2022-12-20T21:16:22.685Z,100.00
2022-12-20T21:18:54.806Z,100.00
2022-12-20T21:21:23.796Z,100.00
2022-12-20T21:23:52.796Z,100.00
2022-12-20T21:26:21.995Z,100.00
2022-12-20T21:28:49.468Z,100.00
2022-12-20T21:31:18.653Z,100.00
2022-12-20T21:33:46.427Z,100.00
2022-12-20T21:36:18.762Z,100.00
2022-12-20T21:38:54.095Z,100.00
2022-12-20T21:41:23.371Z,99.27
2022-12-20T21:43:51.407Z,99.95
2022-12-20T21:46:18.833Z,100.00
2022-12-20T21:48:46.957Z,100.00
2022-12-20T21:51:17.928Z,100.00
2022-12-20T21:53:47.610Z,100.00
2022-12-20T21:56:18.109Z,100.00
2022-12-20T21:58:45.977Z,100.00
2022-12-20T22:01:16.521Z,100.00
2022-12-20T22:03:44.617Z,100.00
2022-12-20T22:06:12.501Z,100.00
2022-12-20T22:08:39.886Z,100.00
2022-12-20T22:11:10.681Z,100.00
2022-12-20T22:13:41.612Z,100.00
2022-12-20T22:16:12.067Z,100.00
2022-12-20T22:18:40.715Z,100.00
2022-12-20T22:21:13.846Z,100.00
2022-12-20T22:23:41.614Z,100.00
2022-12-20T22:26:12.817Z,100.00
2022-12-20T22:28:47.473Z,100.00
2022-12-20T22:31:16.052Z,100.00
2022-12-20T22:33:44.455Z,100.00
2022-12-20T22:36:14.405Z,100.00
2022-12-20T22:38:43.384Z,100.00
2022-12-20T22:41:13.735Z,100.00
2022-12-20T22:43:42.567Z,100.00
2022-12-20T22:48:56.410Z,100.00
2022-12-20T22:51:30.693Z,100.00
2022-12-20T22:53:58.763Z,100.00
2022-12-20T22:56:26.347Z,100.00
2022-12-20T22:58:53.763Z,100.00
2022-12-20T23:01:21.472Z,100.00
2022-12-20T23:03:49.545Z,100.00
2022-12-20T23:06:20.252Z,100.00
2022-12-20T23:08:48.304Z,100.00
2022-12-20T23:11:40.921Z,100.00
2022-12-20T23:14:32.299Z,100.00
2022-12-20T23:17:00.744Z,100.00
2022-12-20T23:19:28.828Z,100.00
2022-12-20T23:22:14.859Z,100.00
2022-12-20T23:24:42.239Z,100.00
2022-12-20T23:27:09.522Z,100.00
2022-12-20T23:29:36.860Z,100.00
2022-12-20T23:32:04.313Z,100.00
2022-12-20T23:34:31.745Z,100.00
2022-12-20T23:36:59.476Z,100.00
2022-12-20T23:39:26.764Z,100.00
2022-12-20T23:41:54.192Z,100.00
2022-12-20T23:44:21.869Z,100.00
2022-12-20T23:46:49.666Z,100.00
2022-12-20T23:49:17.215Z,100.00
2022-12-20T23:51:44.528Z,100.00
2022-12-20T23:54:12.230Z,100.00
2022-12-20T23:56:39.608Z,100.00
2022-12-20T23:59:06.932Z,100.00
